sensor_id;sensor_type;location;lat;lon;timestamp;pressure;altitude;pressure_sealevel;temperature;humidity
42633;BME280;28261;53.304;-6.284;2023-03-15T00:00:25;100934.44;;;1.94;91.66
42633;BME280;28261;53.304;-6.284;2023-03-15T00:02:29;100937.09;;;1.92;91.81
42633;BME280;28261;53.304;-6.284;2023-03-15T00:04:33;100943.22;;;1.91;91.60
42633;BME280;28261;53.304;-6.284;2023-03-15T00:06:39;100945.81;;;1.91;91.92
42633;BME280;28261;53.304;-6.284;2023-03-15T00:08:43;100947.59;;;1.91;91.99
42633;BME280;28261;53.304;-6.284;2023-03-15T00:10:49;100960.63;;;1.92;92.16
42633;BME280;28261;53.304;-6.284;2023-03-15T00:12:52;100964.13;;;1.91;92.33
42633;BME280;28261;53.304;-6.284;2023-03-15T00:14:56;100964.13;;;1.91;92.02
42633;BME280;28261;53.304;-6.284;2023-03-15T00:17:00;100968.56;;;1.89;92.25
42633;BME280;28261;53.304;-6.284;2023-03-15T00:19:04;100971.16;;;1.89;92.09
42633;BME280;28261;53.304;-6.284;2023-03-15T00:21:07;100970.34;;;1.87;92.50
42633;BME280;28261;53.304;-6.284;2023-03-15T00:23:13;100973.88;;;1.86;92.03
42633;BME280;28261;53.304;-6.284;2023-03-15T00:25:17;100975.66;;;1.84;92.54
42633;BME280;28261;53.304;-6.284;2023-03-15T00:27:21;100968.69;;;1.83;92.40
42633;BME280;28261;53.304;-6.284;2023-03-15T00:29:24;100968.69;;;1.83;92.48
42633;BME280;28261;53.304;-6.284;2023-03-15T00:31:28;100964.41;;;1.82;92.71
42633;BME280;28261;53.304;-6.284;2023-03-15T00:33:32;100965.28;;;1.81;92.90
42633;BME280;28261;53.304;-6.284;2023-03-15T00:35:38;100961.88;;;1.77;92.63
42633;BME280;28261;53.304;-6.284;2023-03-15T00:37:42;100962.81;;;1.75;93.16
42633;BME280;28261;53.304;-6.284;2023-03-15T00:39:47;100963.75;;;1.72;93.39
42633;BME280;28261;53.304;-6.284;2023-03-15T00:41:51;100956.88;;;1.69;93.47
42633;BME280;28261;53.304;-6.284;2023-03-15T00:43:58;100954.31;;;1.66;94.30
42633;BME280;28261;53.304;-6.284;2023-03-15T00:46:03;100956.13;;;1.64;94.12
42633;BME280;28261;53.304;-6.284;2023-03-15T00:48:07;100950.97;;;1.61;94.20
42633;BME280;28261;53.304;-6.284;2023-03-15T00:50:11;100950.97;;;1.61;94.30
42633;BME280;28261;53.304;-6.284;2023-03-15T00:52:16;100957.16;;;1.59;95.07
42633;BME280;28261;53.304;-6.284;2023-03-15T00:54:20;100951.94;;;1.59;95.06
42633;BME280;28261;53.304;-6.284;2023-03-15T00:56:27;100947.56;;;1.59;94.87
42633;BME280;28261;53.304;-6.284;2023-03-15T00:58:32;100955.41;;;1.59;94.75
42633;BME280;28261;53.304;-6.284;2023-03-15T01:00:35;100944.06;;;1.60;94.87
42633;BME280;28261;53.304;-6.284;2023-03-15T01:02:43;100944.06;;;1.60;95.23
42633;BME280;28261;53.304;-6.284;2023-03-15T01:04:47;100948.34;;;1.63;95.00
42633;BME280;28261;53.304;-6.284;2023-03-15T01:06:50;100948.28;;;1.64;95.05
42633;BME280;28261;53.304;-6.284;2023-03-15T01:08:55;100943.06;;;1.64;94.95
42633;BME280;28261;53.304;-6.284;2023-03-15T01:11:01;100942.19;;;1.64;94.97
42633;BME280;28261;53.304;-6.284;2023-03-15T01:13:08;100946.56;;;1.63;95.17
42633;BME280;28261;53.304;-6.284;2023-03-15T01:15:13;100954.41;;;1.63;95.25
42633;BME280;28261;53.304;-6.284;2023-03-15T01:17:17;100966.66;;;1.61;95.87
42633;BME280;28261;53.304;-6.284;2023-03-15T01:19:21;100958.00;;;1.59;95.74
42633;BME280;28261;53.304;-6.284;2023-03-15T01:21:27;100959.78;;;1.57;95.29
42633;BME280;28261;53.304;-6.284;2023-03-15T01:23:31;100962.44;;;1.56;95.28
42633;BME280;28261;53.304;-6.284;2023-03-15T01:25:34;100961.69;;;1.52;95.69
42633;BME280;28261;53.304;-6.284;2023-03-15T01:27:38;100956.50;;;1.50;96.02
42633;BME280;28261;53.304;-6.284;2023-03-15T01:29:43;100964.34;;;1.49;96.32
42633;BME280;28261;53.304;-6.284;2023-03-15T01:31:48;100964.44;;;1.46;95.99
42633;BME280;28261;53.304;-6.284;2023-03-15T01:33:52;100954.97;;;1.42;95.91
42633;BME280;28261;53.304;-6.284;2023-03-15T01:35:58;100953.25;;;1.41;96.22
42633;BME280;28261;53.304;-6.284;2023-03-15T01:38:03;100955.06;;;1.39;96.48
42633;BME280;28261;53.304;-6.284;2023-03-15T01:40:11;100950.72;;;1.38;97.04
42633;BME280;28261;53.304;-6.284;2023-03-15T01:42:17;100946.38;;;1.37;96.82
42633;BME280;28261;53.304;-6.284;2023-03-15T01:44:21;100945.66;;;1.30;96.85
42633;BME280;28261;53.304;-6.284;2023-03-15T01:46:30;100940.66;;;1.22;96.94
42633;BME280;28261;53.304;-6.284;2023-03-15T01:48:52;100937.47;;;1.11;97.45
42633;BME280;28261;53.304;-6.284;2023-03-15T01:51:06;100947.13;;;1.07;97.91
42633;BME280;28261;53.304;-6.284;2023-03-15T01:53:12;100946.41;;;1.00;98.28
42633;BME280;28261;53.304;-6.284;2023-03-15T01:55:18;100949.91;;;0.99;98.83
42633;BME280;28261;53.304;-6.284;2023-03-15T01:57:35;100961.22;;;0.98;98.52
42633;BME280;28261;53.304;-6.284;2023-03-15T01:59:44;100967.41;;;0.94;98.39
42633;BME280;28261;53.304;-6.284;2023-03-15T02:01:50;100974.47;;;0.91;98.72
42633;BME280;28261;53.304;-6.284;2023-03-15T02:04:00;100983.19;;;0.90;98.36
42633;BME280;28261;53.304;-6.284;2023-03-15T02:06:08;100978.81;;;0.90;98.76
42633;BME280;28261;53.304;-6.284;2023-03-15T02:08:18;100975.31;;;0.91;99.12
42633;BME280;28261;53.304;-6.284;2023-03-15T02:10:25;100971.81;;;0.92;99.16
42633;BME280;28261;53.304;-6.284;2023-03-15T02:12:32;100964.81;;;0.94;99.46
42633;BME280;28261;53.304;-6.284;2023-03-15T02:14:37;100962.19;;;0.96;99.89
42633;BME280;28261;53.304;-6.284;2023-03-15T02:16:43;100963.09;;;0.93;99.56
42633;BME280;28261;53.304;-6.284;2023-03-15T02:18:51;100962.19;;;0.94;100.00
42633;BME280;28261;53.304;-6.284;2023-03-15T02:21:02;100961.31;;;0.95;99.24
42633;BME280;28261;53.304;-6.284;2023-03-15T02:23:10;100959.56;;;0.94;99.43
42633;BME280;28261;53.304;-6.284;2023-03-15T02:25:19;100950.94;;;0.92;99.69
42633;BME280;28261;53.304;-6.284;2023-03-15T02:27:27;100950.09;;;0.90;99.66
42633;BME280;28261;53.304;-6.284;2023-03-15T02:29:32;100947.56;;;0.87;100.00
42633;BME280;28261;53.304;-6.284;2023-03-15T02:31:36;100946.75;;;0.85;100.00
42633;BME280;28261;53.304;-6.284;2023-03-15T02:33:42;100942.44;;;0.84;100.00
42633;BME280;28261;53.304;-6.284;2023-03-15T02:35:48;100942.44;;;0.84;100.00
42633;BME280;28261;53.304;-6.284;2023-03-15T02:37:52;100932.91;;;0.81;100.00
42633;BME280;28261;53.304;-6.284;2023-03-15T02:39:56;100927.75;;;0.80;100.00
42633;BME280;28261;53.304;-6.284;2023-03-15T02:42:00;100926.09;;;0.76;100.00
42633;BME280;28261;53.304;-6.284;2023-03-15T02:44:08;100927.88;;;0.74;100.00
42633;BME280;28261;53.304;-6.284;2023-03-15T02:46:15;100928.78;;;0.73;100.00
42633;BME280;28261;53.304;-6.284;2023-03-15T02:48:20;100921.78;;;0.73;100.00
42633;BME280;28261;53.304;-6.284;2023-03-15T02:50:24;100920.03;;;0.74;100.00
42633;BME280;28261;53.304;-6.284;2023-03-15T02:52:28;100909.59;;;0.74;100.00
42633;BME280;28261;53.304;-6.284;2023-03-15T02:54:32;100906.97;;;0.75;100.00
42633;BME280;28261;53.304;-6.284;2023-03-15T02:56:36;100903.38;;;0.81;100.00
42633;BME280;28261;53.304;-6.284;2023-03-15T02:58:40;100902.34;;;0.87;100.00
42633;BME280;28261;53.304;-6.284;2023-03-15T03:00:49;100892.66;;;0.92;100.00
42633;BME280;28261;53.304;-6.284;2023-03-15T03:02:53;100893.44;;;0.95;100.00
42633;BME280;28261;53.304;-6.284;2023-03-15T03:04:57;100885.53;;;0.98;100.00
42633;BME280;28261;53.304;-6.284;2023-03-15T03:07:01;100888.06;;;1.01;100.00
42633;BME280;28261;53.304;-6.284;2023-03-15T03:09:16;100893.31;;;1.01;100.00
42633;BME280;28261;53.304;-6.284;2023-03-15T03:11:20;100891.50;;;1.04;100.00
42633;BME280;28261;53.304;-6.284;2023-03-15T03:13:25;100881.88;;;1.06;100.00
42633;BME280;28261;53.304;-6.284;2023-03-15T03:15:28;100888.78;;;1.08;100.00
42633;BME280;28261;53.304;-6.284;2023-03-15T03:17:34;100893.13;;;1.08;100.00
42633;BME280;28261;53.304;-6.284;2023-03-15T03:19:40;100884.50;;;1.06;100.00
42633;BME280;28261;53.304;-6.284;2023-03-15T03:21:44;100884.44;;;1.07;100.00
42633;BME280;28261;53.304;-6.284;2023-03-15T03:23:48;100880.06;;;1.08;100.00
42633;BME280;28261;53.304;-6.284;2023-03-15T03:25:52;100874.06;;;1.06;100.00
42633;BME280;28261;53.304;-6.284;2023-03-15T03:27:57;100871.56;;;0.99;100.00
42633;BME280;28261;53.304;-6.284;2023-03-15T03:30:02;100869.06;;;0.96;100.00
42633;BME280;28261;53.304;-6.284;2023-03-15T03:32:07;100862.16;;;0.94;100.00
42633;BME280;28261;53.304;-6.284;2023-03-15T03:34:13;100860.47;;;0.91;100.00
42633;BME280;28261;53.304;-6.284;2023-03-15T03:36:17;100853.56;;;0.89;100.00
42633;BME280;28261;53.304;-6.284;2023-03-15T03:38:20;100851.84;;;0.89;100.00
42633;BME280;28261;53.304;-6.284;2023-03-15T03:40:29;100852.69;;;0.90;100.00
42633;BME280;28261;53.304;-6.284;2023-03-15T03:42:33;100852.59;;;0.93;100.00
42633;BME280;28261;53.304;-6.284;2023-03-15T03:44:38;100851.66;;;0.95;100.00
42633;BME280;28261;53.304;-6.284;2023-03-15T03:46:42;100849.84;;;0.99;100.00
42633;BME280;28261;53.304;-6.284;2023-03-15T03:48:47;100855.88;;;1.03;100.00
42633;BME280;28261;53.304;-6.284;2023-03-15T03:50:52;100858.47;;;1.03;100.00
42633;BME280;28261;53.304;-6.284;2023-03-15T03:52:55;100849.72;;;1.04;100.00
42633;BME280;28261;53.304;-6.284;2023-03-15T03:55:05;100851.44;;;1.05;100.00
42633;BME280;28261;53.304;-6.284;2023-03-15T03:57:09;100851.53;;;1.01;100.00
42633;BME280;28261;53.304;-6.284;2023-03-15T03:59:14;100849.88;;;0.97;100.00
42633;BME280;28261;53.304;-6.284;2023-03-15T04:01:28;100838.66;;;0.94;100.00
42633;BME280;28261;53.304;-6.284;2023-03-15T04:03:31;100837.88;;;0.90;100.00
42633;BME280;28261;53.304;-6.284;2023-03-15T04:05:40;100840.53;;;0.89;100.00
42633;BME280;28261;53.304;-6.284;2023-03-15T04:07:50;100834.47;;;0.88;100.00
42633;BME280;28261;53.304;-6.284;2023-03-15T04:09:54;100847.53;;;0.87;100.00
42633;BME280;28261;53.304;-6.284;2023-03-15T04:11:57;100840.53;;;0.89;100.00
42633;BME280;28261;53.304;-6.284;2023-03-15T04:14:01;100845.69;;;0.92;100.00
42633;BME280;28261;53.304;-6.284;2023-03-15T04:16:05;100843.03;;;0.93;100.00
42633;BME280;28261;53.304;-6.284;2023-03-15T04:18:24;100842.16;;;0.93;100.00
42633;BME280;28261;53.304;-6.284;2023-03-15T04:20:29;100843.91;;;0.92;100.00
42633;BME280;28261;53.304;-6.284;2023-03-15T04:22:36;100845.69;;;0.92;100.00
42633;BME280;28261;53.304;-6.284;2023-03-15T04:24:54;100849.00;;;0.97;100.00
42633;BME280;28261;53.304;-6.284;2023-03-15T04:27:18;100848.03;;;1.01;100.00
42633;BME280;28261;53.304;-6.284;2023-03-15T04:30:00;100848.88;;;1.03;100.00
42633;BME280;28261;53.304;-6.284;2023-03-15T04:32:41;100834.16;;;1.00;100.00
42633;BME280;28261;53.304;-6.284;2023-03-15T04:35:01;100834.28;;;0.94;100.00
42633;BME280;28261;53.304;-6.284;2023-03-15T04:37:18;100831.81;;;0.90;100.00
42633;BME280;28261;53.304;-6.284;2023-03-15T04:39:31;100842.16;;;0.93;100.00
42633;BME280;28261;53.304;-6.284;2023-03-15T04:41:57;100843.88;;;0.94;100.00
42633;BME280;28261;53.304;-6.284;2023-03-15T04:44:24;100848.16;;;0.96;100.00
42633;BME280;28261;53.304;-6.284;2023-03-15T04:46:42;100848.03;;;1.03;100.00
42633;BME280;28261;53.304;-6.284;2023-03-15T04:49:17;100853.03;;;1.10;100.00
42633;BME280;28261;53.304;-6.284;2023-03-15T04:51:24;100848.66;;;1.12;100.00
42633;BME280;28261;53.304;-6.284;2023-03-15T04:53:37;100846.97;;;1.10;100.00
42633;BME280;28261;53.304;-6.284;2023-03-15T04:56:01;100838.31;;;1.08;100.00
42633;BME280;28261;53.304;-6.284;2023-03-15T04:58:30;100841.84;;;1.05;100.00
42633;BME280;28261;53.304;-6.284;2023-03-15T05:01:05;100841.00;;;1.05;100.00
42633;BME280;28261;53.304;-6.284;2023-03-15T05:03:38;100841.75;;;1.10;100.00
42633;BME280;28261;53.304;-6.284;2023-03-15T05:06:02;100837.28;;;1.15;100.00
42633;BME280;28261;53.304;-6.284;2023-03-15T05:08:29;100832.84;;;1.17;100.00
42633;BME280;28261;53.304;-6.284;2023-03-15T05:10:51;100835.53;;;1.14;100.00
42633;BME280;28261;53.304;-6.284;2023-03-15T05:13:21;100839.00;;;1.14;100.00
42633;BME280;28261;53.304;-6.284;2023-03-15T05:15:55;100831.97;;;1.18;100.00
42633;BME280;28261;53.304;-6.284;2023-03-15T05:18:11;100829.25;;;1.21;100.00
42633;BME280;28261;53.304;-6.284;2023-03-15T05:20:33;100830.03;;;1.25;100.00
42633;BME280;28261;53.304;-6.284;2023-03-15T05:22:53;100833.41;;;1.28;100.00
42633;BME280;28261;53.304;-6.284;2023-03-15T05:25:14;100828.13;;;1.31;100.00
42633;BME280;28261;53.304;-6.284;2023-03-15T05:27:36;100827.19;;;1.34;100.00
42633;BME280;28261;53.304;-6.284;2023-03-15T05:30:07;100825.38;;;1.36;100.00
42633;BME280;28261;53.304;-6.284;2023-03-15T05:32:19;100828.69;;;1.43;100.00
42633;BME280;28261;53.304;-6.284;2023-03-15T05:34:47;100824.00;;;1.54;100.00
42633;BME280;28261;53.304;-6.284;2023-03-15T05:37:17;100821.09;;;1.65;100.00
42633;BME280;28261;53.304;-6.284;2023-03-15T05:39:20;100828.72;;;1.73;100.00
42633;BME280;28261;53.304;-6.284;2023-03-15T05:41:46;100821.56;;;1.79;100.00
42633;BME280;28261;53.304;-6.284;2023-03-15T05:44:04;100810.88;;;1.87;100.00
42633;BME280;28261;53.304;-6.284;2023-03-15T05:46:27;100809.81;;;1.93;100.00
42633;BME280;28261;53.304;-6.284;2023-03-15T05:48:45;100807.09;;;1.97;100.00
42633;BME280;28261;53.304;-6.284;2023-03-15T05:51:02;100795.63;;;2.01;100.00
42633;BME280;28261;53.304;-6.284;2023-03-15T05:53:20;100803.28;;;2.08;100.00
42633;BME280;28261;53.304;-6.284;2023-03-15T05:55:43;100807.56;;;2.10;100.00
42633;BME280;28261;53.304;-6.284;2023-03-15T05:58:05;100801.38;;;2.13;100.00
42633;BME280;28261;53.304;-6.284;2023-03-15T06:00:35;100803.91;;;2.16;100.00
42633;BME280;28261;53.304;-6.284;2023-03-15T06:02:47;100799.50;;;2.18;100.00
42633;BME280;28261;53.304;-6.284;2023-03-15T06:05:11;100806.34;;;2.22;100.00
42633;BME280;28261;53.304;-6.284;2023-03-15T06:07:15;100801.00;;;2.25;100.00
42633;BME280;28261;53.304;-6.284;2023-03-15T06:09:19;100796.59;;;2.27;100.00
42633;BME280;28261;53.304;-6.284;2023-03-15T06:11:22;100793.06;;;2.28;100.00
42633;BME280;28261;53.304;-6.284;2023-03-15T06:13:26;100789.53;;;2.29;100.00
42633;BME280;28261;53.304;-6.284;2023-03-15T06:15:30;100777.22;;;2.33;100.00
42633;BME280;28261;53.304;-6.284;2023-03-15T06:17:34;100777.13;;;2.36;100.00
42633;BME280;28261;53.304;-6.284;2023-03-15T06:19:38;100771.78;;;2.39;100.00
42633;BME280;28261;53.304;-6.284;2023-03-15T06:21:42;100779.56;;;2.42;100.00
42633;BME280;28261;53.304;-6.284;2023-03-15T06:23:55;100779.34;;;2.48;100.00
42633;BME280;28261;53.304;-6.284;2023-03-15T06:25:58;100771.38;;;2.51;100.00
42633;BME280;28261;53.304;-6.284;2023-03-15T06:28:03;100771.38;;;2.53;100.00
42633;BME280;28261;53.304;-6.284;2023-03-15T06:30:08;100767.03;;;2.52;100.00
42633;BME280;28261;53.304;-6.284;2023-03-15T06:32:11;100774.13;;;2.48;100.00
42633;BME280;28261;53.304;-6.284;2023-03-15T06:34:16;100772.31;;;2.50;100.00
42633;BME280;28261;53.304;-6.284;2023-03-15T06:36:20;100767.13;;;2.49;100.00
42633;BME280;28261;53.304;-6.284;2023-03-15T06:38:25;100763.84;;;2.42;100.00
42633;BME280;28261;53.304;-6.284;2023-03-15T06:40:28;100769.03;;;2.44;100.00
42633;BME280;28261;53.304;-6.284;2023-03-15T06:42:32;100769.84;;;2.46;100.00
42633;BME280;28261;53.304;-6.284;2023-03-15T06:44:36;100758.47;;;2.47;100.00
42633;BME280;28261;53.304;-6.284;2023-03-15T06:46:41;100767.91;;;2.51;100.00
42633;BME280;28261;53.304;-6.284;2023-03-15T06:48:45;100767.81;;;2.54;100.00
42633;BME280;28261;53.304;-6.284;2023-03-15T06:50:49;100765.13;;;2.57;100.00
42633;BME280;28261;53.304;-6.284;2023-03-15T06:52:52;100762.34;;;2.62;100.00
42633;BME280;28261;53.304;-6.284;2023-03-15T06:54:57;100763.88;;;2.67;100.00
42633;BME280;28261;53.304;-6.284;2023-03-15T06:57:02;100755.03;;;2.71;100.00
42633;BME280;28261;53.304;-6.284;2023-03-15T06:59:05;100754.06;;;2.74;99.83
42633;BME280;28261;53.304;-6.284;2023-03-15T07:01:10;100750.44;;;2.78;99.54
42633;BME280;28261;53.304;-6.284;2023-03-15T07:03:14;100745.84;;;2.85;99.24
42633;BME280;28261;53.304;-6.284;2023-03-15T07:05:17;100736.97;;;2.89;98.90
42633;BME280;28261;53.304;-6.284;2023-03-15T07:07:20;100735.13;;;2.93;98.36
42633;BME280;28261;53.304;-6.284;2023-03-15T07:09:24;100728.81;;;2.98;97.60
42633;BME280;28261;53.304;-6.284;2023-03-15T07:11:28;100733.03;;;3.02;96.84
42633;BME280;28261;53.304;-6.284;2023-03-15T07:13:32;100730.28;;;3.05;96.62
42633;BME280;28261;53.304;-6.284;2023-03-15T07:15:35;100720.50;;;3.11;96.42
42633;BME280;28261;53.304;-6.284;2023-03-15T07:17:39;100724.72;;;3.15;96.21
42633;BME280;28261;53.304;-6.284;2023-03-15T07:19:42;100718.53;;;3.17;96.02
42633;BME280;28261;53.304;-6.284;2023-03-15T07:21:57;100707.09;;;3.20;95.79
42633;BME280;28261;53.304;-6.284;2023-03-15T07:24:00;100701.72;;;3.23;95.26
42633;BME280;28261;53.304;-6.284;2023-03-15T07:26:04;100699.88;;;3.25;95.66
42633;BME280;28261;53.304;-6.284;2023-03-15T07:28:08;100693.69;;;3.28;95.67
42633;BME280;28261;53.304;-6.284;2023-03-15T07:30:12;100703.19;;;3.30;95.79
42633;BME280;28261;53.304;-6.284;2023-03-15T07:32:16;100699.63;;;3.33;96.04
42633;BME280;28261;53.304;-6.284;2023-03-15T07:34:19;100702.16;;;3.34;95.29
42633;BME280;28261;53.304;-6.284;2023-03-15T07:36:23;100692.59;;;3.33;94.44
42633;BME280;28261;53.304;-6.284;2023-03-15T07:38:27;100701.28;;;3.35;95.25
42633;BME280;28261;53.304;-6.284;2023-03-15T07:40:31;100696.78;;;3.39;95.41
42633;BME280;28261;53.304;-6.284;2023-03-15T07:42:35;100705.41;;;3.41;94.18
42633;BME280;28261;53.304;-6.284;2023-03-15T07:44:40;100709.69;;;3.44;95.03
42633;BME280;28261;53.304;-6.284;2023-03-15T07:46:43;100709.50;;;3.48;94.61
42633;BME280;28261;53.304;-6.284;2023-03-15T07:48:48;100707.75;;;3.49;93.92
42633;BME280;28261;53.304;-6.284;2023-03-15T07:50:52;100709.56;;;3.47;93.05
42633;BME280;28261;53.304;-6.284;2023-03-15T07:52:55;100700.81;;;3.48;94.10
42633;BME280;28261;53.304;-6.284;2023-03-15T07:54:59;100701.72;;;3.47;94.02
42633;BME280;28261;53.304;-6.284;2023-03-15T07:57:03;100702.69;;;3.44;94.48
42633;BME280;28261;53.304;-6.284;2023-03-15T07:59:07;100700.94;;;3.45;94.60
42633;BME280;28261;53.304;-6.284;2023-03-15T08:01:12;100702.63;;;3.46;95.06
42633;BME280;28261;53.304;-6.284;2023-03-15T08:03:16;100703.56;;;3.45;95.16
42633;BME280;28261;53.304;-6.284;2023-03-15T08:05:20;100707.84;;;3.46;95.64
42633;BME280;28261;53.304;-6.284;2023-03-15T08:07:27;100701.72;;;3.47;95.40
42633;BME280;28261;53.304;-6.284;2023-03-15T08:09:30;100697.28;;;3.49;95.75
42633;BME280;28261;53.304;-6.284;2023-03-15T08:11:36;100697.16;;;3.52;95.88
42633;BME280;28261;53.304;-6.284;2023-03-15T08:13:39;100702.41;;;3.52;95.98
42633;BME280;28261;53.304;-6.284;2023-03-15T08:15:44;100704.13;;;3.53;95.82
42633;BME280;28261;53.304;-6.284;2023-03-15T08:17:50;100702.41;;;3.52;96.22
42633;BME280;28261;53.304;-6.284;2023-03-15T08:19:53;100693.69;;;3.51;96.26
42633;BME280;28261;53.304;-6.284;2023-03-15T08:21:57;100696.34;;;3.50;96.62
42633;BME280;28261;53.304;-6.284;2023-03-15T08:24:01;100701.66;;;3.48;97.06
42633;BME280;28261;53.304;-6.284;2023-03-15T08:26:05;100697.38;;;3.46;97.23
42633;BME280;28261;53.304;-6.284;2023-03-15T08:28:09;100699.22;;;3.44;97.87
42633;BME280;28261;53.304;-6.284;2023-03-15T08:30:14;100694.88;;;3.43;98.37
42633;BME280;28261;53.304;-6.284;2023-03-15T08:32:18;100692.25;;;3.43;98.23
42633;BME280;28261;53.304;-6.284;2023-03-15T08:34:24;100692.38;;;3.39;98.58
42633;BME280;28261;53.304;-6.284;2023-03-15T08:36:28;100693.28;;;3.38;98.77
42633;BME280;28261;53.304;-6.284;2023-03-15T08:38:33;100688.84;;;3.41;99.13
42633;BME280;28261;53.304;-6.284;2023-03-15T08:40:37;100687.00;;;3.43;99.46
42633;BME280;28261;53.304;-6.284;2023-03-15T08:42:41;100686.00;;;3.47;99.94
42633;BME280;28261;53.304;-6.284;2023-03-15T08:44:45;100688.44;;;3.51;99.40
42633;BME280;28261;53.304;-6.284;2023-03-15T08:46:49;100689.97;;;3.57;99.41
42633;BME280;28261;53.304;-6.284;2023-03-15T08:48:53;100686.38;;;3.60;100.00
42633;BME280;28261;53.304;-6.284;2023-03-15T08:51:02;100684.53;;;3.62;100.00
42633;BME280;28261;53.304;-6.284;2023-03-15T08:53:07;100674.97;;;3.61;100.00
42633;BME280;28261;53.304;-6.284;2023-03-15T08:55:11;100668.88;;;3.60;100.00
42633;BME280;28261;53.304;-6.284;2023-03-15T08:57:15;100659.16;;;3.62;100.00
42633;BME280;28261;53.304;-6.284;2023-03-15T08:59:20;100672.19;;;3.65;100.00
42633;BME280;28261;53.304;-6.284;2023-03-15T09:01:33;100666.81;;;3.68;100.00
42633;BME280;28261;53.304;-6.284;2023-03-15T09:03:37;100665.00;;;3.70;100.00
42633;BME280;28261;53.304;-6.284;2023-03-15T09:05:41;100662.25;;;3.73;100.00
42633;BME280;28261;53.304;-6.284;2023-03-15T09:07:46;100663.03;;;3.76;100.00
42633;BME280;28261;53.304;-6.284;2023-03-15T09:09:50;100662.94;;;3.79;100.00
42633;BME280;28261;53.304;-6.284;2023-03-15T09:11:55;100661.16;;;3.79;100.00
42633;BME280;28261;53.304;-6.284;2023-03-15T09:13:59;100659.28;;;3.81;100.00
42633;BME280;28261;53.304;-6.284;2023-03-15T09:16:02;100658.38;;;3.82;100.00
42633;BME280;28261;53.304;-6.284;2023-03-15T09:18:06;100666.19;;;3.84;100.00
42633;BME280;28261;53.304;-6.284;2023-03-15T09:20:11;100648.56;;;3.87;100.00
42633;BME280;28261;53.304;-6.284;2023-03-15T09:22:17;100644.97;;;3.90;100.00
42633;BME280;28261;53.304;-6.284;2023-03-15T09:24:40;100645.88;;;3.89;100.00
42633;BME280;28261;53.304;-6.284;2023-03-15T09:26:44;100641.56;;;3.88;100.00
42633;BME280;28261;53.304;-6.284;2023-03-15T09:28:47;100638.03;;;3.89;100.00
42633;BME280;28261;53.304;-6.284;2023-03-15T09:30:51;100647.66;;;3.88;100.00
42633;BME280;28261;53.304;-6.284;2023-03-15T09:32:55;100639.00;;;3.86;100.00
42633;BME280;28261;53.304;-6.284;2023-03-15T09:34:58;100637.28;;;3.85;100.00
42633;BME280;28261;53.304;-6.284;2023-03-15T09:37:02;100634.66;;;3.85;100.00
42633;BME280;28261;53.304;-6.284;2023-03-15T09:39:06;100640.78;;;3.86;100.00
42633;BME280;28261;53.304;-6.284;2023-03-15T09:41:16;100635.41;;;3.89;100.00
42633;BME280;28261;53.304;-6.284;2023-03-15T09:46:26;100625.09;;;3.84;100.00
42633;BME280;28261;53.304;-6.284;2023-03-15T09:48:36;100620.72;;;3.85;100.00
42633;BME280;28261;53.304;-6.284;2023-03-15T09:50:43;100613.81;;;3.82;100.00
42633;BME280;28261;53.304;-6.284;2023-03-15T09:52:51;100606.84;;;3.81;100.00
42633;BME280;28261;53.304;-6.284;2023-03-15T09:54:58;100600.00;;;3.79;100.00
42633;BME280;28261;53.304;-6.284;2023-03-15T09:57:11;100599.94;;;3.80;100.00
42633;BME280;28261;53.304;-6.284;2023-03-15T09:59:17;100589.38;;;3.82;100.00
42633;BME280;28261;53.304;-6.284;2023-03-15T10:01:28;100589.38;;;3.82;100.00
42633;BME280;28261;53.304;-6.284;2023-03-15T10:03:40;100585.84;;;3.83;100.00
42633;BME280;28261;53.304;-6.284;2023-03-15T10:05:48;100585.84;;;3.83;100.00
42633;BME280;28261;53.304;-6.284;2023-03-15T10:07:54;100578.00;;;3.81;100.00
42633;BME280;28261;53.304;-6.284;2023-03-15T10:09:58;100576.25;;;3.82;100.00
42633;BME280;28261;53.304;-6.284;2023-03-15T10:12:08;100570.09;;;3.83;100.00
42633;BME280;28261;53.304;-6.284;2023-03-15T10:14:20;100567.41;;;3.84;100.00
42633;BME280;28261;53.304;-6.284;2023-03-15T10:16:36;100569.97;;;3.86;100.00
42633;BME280;28261;53.304;-6.284;2023-03-15T10:18:51;100563.75;;;3.88;100.00
42633;BME280;28261;53.304;-6.284;2023-03-15T10:21:01;100556.72;;;3.89;100.00
42633;BME280;28261;53.304;-6.284;2023-03-15T10:23:13;100557.63;;;3.88;100.00
42633;BME280;28261;53.304;-6.284;2023-03-15T10:25:21;100552.31;;;3.89;100.00
42633;BME280;28261;53.304;-6.284;2023-03-15T10:27:32;100540.09;;;3.90;100.00
42633;BME280;28261;53.304;-6.284;2023-03-15T10:29:37;100538.22;;;3.92;100.00
42633;BME280;28261;53.304;-6.284;2023-03-15T10:31:43;100532.97;;;3.92;100.00
42633;BME280;28261;53.304;-6.284;2023-03-15T10:33:49;100542.38;;;3.98;100.00
42633;BME280;28261;53.304;-6.284;2023-03-15T10:35:54;100526.44;;;4.02;100.00
42633;BME280;28261;53.304;-6.284;2023-03-15T10:38:15;100526.22;;;4.07;100.00
42633;BME280;28261;53.304;-6.284;2023-03-15T10:40:40;100513.03;;;4.09;100.00
42633;BME280;28261;53.304;-6.284;2023-03-15T10:42:46;100514.50;;;4.16;100.00
42633;BME280;28261;53.304;-6.284;2023-03-15T10:44:50;100519.59;;;4.19;100.00
42633;BME280;28261;53.304;-6.284;2023-03-15T10:47:01;100524.72;;;4.22;100.00
42633;BME280;28261;53.304;-6.284;2023-03-15T10:49:32;100508.72;;;4.28;100.00
42633;BME280;28261;53.304;-6.284;2023-03-15T10:51:38;100501.50;;;4.33;100.00
42633;BME280;28261;53.304;-6.284;2023-03-15T10:53:52;100508.16;;;4.40;100.00
42633;BME280;28261;53.304;-6.284;2023-03-15T10:55:58;100494.69;;;4.48;100.00
42633;BME280;28261;53.304;-6.284;2023-03-15T10:58:18;100490.00;;;4.55;100.00
42633;BME280;28261;53.304;-6.284;2023-03-15T11:00:27;100474.91;;;4.60;100.00
42633;BME280;28261;53.304;-6.284;2023-03-15T11:02:32;100472.00;;;4.66;100.00
42633;BME280;28261;53.304;-6.284;2023-03-15T11:04:40;100485.63;;;4.74;100.00
42633;BME280;28261;53.304;-6.284;2023-03-15T11:06:46;100457.34;;;4.80;100.00